Time;durP1;ratioP1;P1;durP2;ratioP2;P2;SDS_P1;SDS_P2;PMS_P1;PMS_P2;Temp;Humidity;BMP_temperature;BMP_pressure;BME280_temperature;BME280_humidity;BME280_pressure;Samples;Min_cycle;Max_cycle;Signal;HPM_P1;HPM_P2
2022/11/07 00:00:50;;;;;;;5.85;4.20;;;;;;;-1.74;65.08;97273.22;6171546;28;20047;-66
2022/11/07 00:03:57;;;;;;;5.03;4.00;;;;;;;-1.82;65.26;97268.97;6186915;28;20425;-66
2022/11/07 00:06:59;;;;;;;4.97;3.40;;;;;;;-1.88;65.06;97252.72;6194514;28;20046;-66
2022/11/07 00:10:00;;;;;;;5.97;3.40;;;;;;;-1.89;65.33;97261.34;6194647;28;20053;-66
2022/11/07 00:13:07;;;;;;;6.07;3.58;;;;;;;-1.97;65.16;97263.97;6195320;28;20042;-66
2022/11/07 00:16:10;;;;;;;4.85;3.63;;;;;;;-2.04;65.68;97255.44;6225126;28;20145;-65
2022/11/07 00:19:18;;;;;;;5.88;3.72;;;;;;;-2.12;65.83;97258.97;6195082;28;20432;-66
2022/11/07 00:22:22;;;;;;;5.38;3.30;;;;;;;-2.29;65.71;97252.22;6194851;28;20061;-66
2022/11/07 00:25:26;;;;;;;4.90;3.60;;;;;;;-2.32;65.42;97257.41;6191744;28;20646;-67
2022/11/07 00:28:28;;;;;;;5.93;4.00;;;;;;;-2.47;65.95;97249.78;6191945;28;20050;-66
2022/11/07 00:31:30;;;;;;;5.95;3.88;;;;;;;-2.71;66.45;97261.13;6191430;28;20133;-66
2022/11/07 00:34:38;;;;;;;5.68;3.72;;;;;;;-2.93;66.97;97255.22;6193041;28;20514;-66
2022/11/07 00:37:42;;;;;;;6.10;3.78;;;;;;;-3.02;67.51;97255.28;6193957;28;20521;-66
2022/11/07 00:40:56;;;;;;;5.15;3.50;;;;;;;-3.06;67.79;97263.88;6196816;28;20062;-66
2022/11/07 00:43:57;;;;;;;6.93;3.47;;;;;;;-3.19;67.87;97263.94;6193278;28;20418;-66
2022/11/07 00:46:59;;;;;;;5.68;3.70;;;;;;;-3.23;67.73;97261.38;6194587;28;20049;-66
2022/11/07 00:50:04;;;;;;;4.57;3.38;;;;;;;-3.28;68.07;97268.28;6194527;28;20050;-66
2022/11/07 00:53:06;;;;;;;5.32;3.45;;;;;;;-3.42;68.21;97258.03;6194548;28;20119;-66
2022/11/07 00:56:12;;;;;;;5.38;3.28;;;;;;;-3.45;68.54;97265.78;6194828;28;20048;-66
2022/11/07 00:59:13;;;;;;;4.97;3.60;;;;;;;-3.44;68.43;97257.19;6192554;28;20429;-66
2022/11/07 01:02:15;;;;;;;4.07;3.08;;;;;;;-3.41;68.52;97267.47;6192039;28;20050;-66
2022/11/07 01:05:20;;;;;;;5.88;3.78;;;;;;;-3.25;67.98;97268.25;6175056;28;20135;-66
2022/11/07 01:08:26;;;;;;;5.32;3.55;;;;;;;-3.04;67.86;97262.16;6170063;28;20043;-66
2022/11/07 01:11:28;;;;;;;;;;;;;;;-2.90;67.86;97267.22;6169892;28;20505;-66
2022/11/07 01:14:30;;;;;;;5.18;2.92;;;;;;;-2.76;67.03;97262.84;6170363;28;20393;-66
2022/11/07 01:17:34;;;;;;;4.38;2.83;;;;;;;-2.61;66.60;97261.91;6227368;28;20606;-66
2022/11/07 01:20:40;;;;;;;4.22;3.33;;;;;;;-2.54;66.39;97259.28;6169117;28;20138;-66
2022/11/07 01:23:43;;;;;;;4.05;2.80;;;;;;;-2.60;65.82;97253.31;6184449;28;20042;-67
2022/11/07 01:26:47;;;;;;;5.85;3.17;;;;;;;-2.55;66.44;97251.53;6194234;28;20151;-66
2022/11/07 01:29:51;;;;;;;4.82;2.72;;;;;;;-2.44;66.16;97249.75;6208753;28;20046;-66
2022/11/07 01:32:54;;;;;;;4.60;2.75;;;;;;;-2.39;65.98;97258.31;6169151;28;20046;-67
2022/11/07 01:36:04;;;;;;;3.30;3.00;;;;;;;-2.33;65.98;97252.25;6169086;28;20050;-66
2022/11/07 01:39:06;;;;;;;4.82;3.28;;;;;;;-2.33;65.60;97247.09;6167307;28;20141;-66
2022/11/07 01:42:11;;;;;;;4.65;3.03;;;;;;;-2.27;65.73;97263.34;6221911;28;20045;-66
2022/11/07 01:45:24;;;;;;;7.80;4.18;;;;;;;-2.17;66.28;97258.16;6168530;28;20050;-66
2022/11/07 01:48:26;;;;;;;5.63;3.40;;;;;;;-2.06;65.28;97261.50;6171543;28;20550;-66
2022/11/07 01:51:32;;;;;;;5.40;3.28;;;;;;;-1.96;65.04;97250.19;6176057;28;20055;-66
2022/11/07 01:54:45;;;;;;;5.75;3.42;;;;;;;-1.98;65.74;97249.38;6169168;28;20200;-67
2022/11/07 01:57:49;;;;;;;4.45;3.08;;;;;;;-1.85;65.50;97253.53;6168541;28;20042;-67
2022/11/07 02:00:52;;;;;;;5.18;3.25;;;;;;;-1.90;65.34;97251.88;6167011;28;20045;-66
2022/11/07 02:03:58;;;;;;;5.72;3.00;;;;;;;-1.88;65.43;97239.81;6182221;28;20058;-67
2022/11/07 02:07:17;;;;;;;4.80;3.10;;;;;;;-1.84;65.41;97250.09;6191614;28;20357;-66
2022/11/07 02:10:22;;;;;;;3.53;2.55;;;;;;;-1.75;65.49;97250.88;6201061;28;20195;-66
2022/11/07 02:13:26;;;;;;;4.05;2.85;;;;;;;-1.77;65.76;97247.47;6189639;28;20042;-67
2022/11/07 02:16:31;;;;;;;;;;;;;;;-1.74;65.10;97253.44;6190198;28;20054;-66
2022/11/07 02:19:44;;;;;;;4.97;2.65;;;;;;;-1.69;65.50;97250.81;6190270;28;19925;-66
2022/11/07 02:23:03;;;;;;;8.15;3.40;;;;;;;-1.65;65.22;97242.16;6192646;28;20508;-67
2022/11/07 02:26:08;;;;;;;6.63;3.05;;;;;;;-1.64;65.13;97243.88;6210960;28;20061;-67
2022/11/07 02:29:14;;;;;;;5.80;2.80;;;;;;;-1.56;65.09;97244.63;6191033;28;20429;-67
2022/11/07 02:32:16;;;;;;;4.30;2.97;;;;;;;-1.53;64.57;97247.19;6230993;28;20057;-66
2022/11/07 02:35:40;;;;;;;4.55;2.85;;;;;;;-1.48;65.39;97250.56;6183401;28;20085;-67
2022/11/07 02:38:44;;;;;;;5.03;3.00;;;;;;;-1.48;65.34;97242.81;6192332;28;20551;-65
2022/11/07 02:41:49;;;;;;;4.07;2.78;;;;;;;-1.55;64.63;97227.44;6190748;28;20046;-66
2022/11/07 02:44:54;;;;;;;4.28;2.78;;;;;;;-1.42;64.31;97249.63;6287866;28;20036;-66
2022/11/07 02:47:55;;;;;;;4.95;3.55;;;;;;;-1.41;64.58;97252.22;6193465;28;20485;-66
2022/11/07 02:50:57;;;;;;;6.90;3.42;;;;;;;-1.50;64.02;97239.44;6188728;28;20096;-66
2022/11/07 02:54:01;;;;;;;5.22;2.92;;;;;;;-1.41;64.44;97257.38;6192225;28;20061;-66
2022/11/07 02:57:05;;;;;;;5.35;2.67;;;;;;;-1.37;64.46;97253.88;6189516;28;20112;-66
2022/11/07 03:00:11;;;;;;;5.90;2.90;;;;;;;-1.38;65.22;97257.34;6190771;28;20505;-67
2022/11/07 03:03:12;;;;;;;3.80;2.42;;;;;;;-1.38;64.52;97252.19;6236400;28;20143;-66
2022/11/07 03:06:25;;;;;;;3.88;2.95;;;;;;;-1.29;64.87;97251.22;6171478;28;20051;-66
2022/11/07 03:09:26;;;;;;;4.68;2.80;;;;;;;-1.30;64.50;97246.94;6171897;28;20051;-65
2022/11/07 03:12:28;;;;;;;5.00;3.00;;;;;;;-1.25;64.95;97252.03;6173612;28;20050;-66
2022/11/07 03:15:31;;;;;;;3.28;2.53;;;;;;;-1.22;64.54;97246.81;6193172;28;20038;-65
2022/11/07 03:18:36;;;;;;;5.93;2.88;;;;;;;-1.18;64.37;97243.34;6171746;28;20043;-66
2022/11/07 03:21:40;;;;;;;6.07;3.65;;;;;;;-1.16;64.75;97251.91;6171603;28;20057;-65
2022/11/07 03:24:43;;;;;;;;;;;;;;;-1.11;64.59;97249.28;6171880;28;20054;-65
2022/11/07 03:27:48;;;;;;;6.72;3.40;;;;;;;-1.07;64.14;97246.66;6238364;28;19926;-66
2022/11/07 03:30:52;;;;;;;7.25;3.38;;;;;;;-1.03;64.54;97247.44;6184238;28;20047;-66
2022/11/07 03:33:53;;;;;;;4.63;2.85;;;;;;;-0.95;64.30;97251.66;6170624;28;20050;-66
2022/11/07 03:36:55;;;;;;;4.93;3.25;;;;;;;-0.91;64.51;97263.66;6225875;28;20032;-66
2022/11/07 03:39:56;;;;;;;5.68;3.40;;;;;;;-0.88;64.09;97254.97;6186460;28;20133;-66
2022/11/07 03:43:00;;;;;;;5.13;3.60;;;;;;;-0.85;64.25;97256.69;6170435;28;20042;-66
2022/11/07 03:46:04;;;;;;;6.10;2.92;;;;;;;-0.77;64.08;97265.19;6171399;28;20145;-65
2022/11/07 03:49:08;;;;;;;5.90;2.92;;;;;;;-0.78;64.08;97263.47;6188901;28;20069;-65
2022/11/07 03:52:09;;;;;;;5.57;3.13;;;;;;;-0.68;64.60;97275.38;6170918;28;20049;-67
2022/11/07 03:55:14;;;;;;;6.75;3.47;;;;;;;-0.62;64.06;97264.97;6253219;28;20052;-65
2022/11/07 03:58:16;;;;;;;8.15;4.30;;;;;;;-0.60;63.82;97268.38;6170257;28;20142;-65
2022/11/07 04:01:22;;;;;;;7.53;4.40;;;;;;;-0.48;63.93;97278.56;6236025;28;20073;-65
2022/11/07 04:04:23;;;;;;;9.60;4.25;;;;;;;-0.44;63.92;97273.34;6181407;28;20038;-65
2022/11/07 04:07:25;;;;;;;6.38;3.75;;;;;;;-0.35;63.57;97262.84;6194810;28;20045;-66
2022/11/07 04:10:30;;;;;;;6.93;4.05;;;;;;;-0.24;63.69;97271.31;6221868;28;20133;-65
2022/11/07 04:20:14;;;;;;;7.35;4.70;;;;;;;0.33;62.59;97273.78;6252592;28;20048;-66
2022/11/07 04:23:15;;;;;;;6.03;4.05;;;;;;;0.53;62.27;97272.56;6195033;28;20096;-66
2022/11/07 04:29:36;;;;;;;5.68;3.92;;;;;;;0.96;61.42;97269.13;6169441;28;20061;-66
2022/11/07 04:32:42;;;;;;;6.75;3.83;;;;;;;0.86;60.36;97212.34;6185558;28;20049;-66
2022/11/07 04:35:46;;;;;;;4.75;3.05;;;;;;;1.39;59.97;97281.19;6182613;28;20046;-66
2022/11/07 04:38:47;;;;;;;5.53;3.85;;;;;;;1.47;59.78;97284.47;6170884;28;20133;-65
2022/11/07 04:41:50;;;;;;;5.90;3.90;;;;;;;1.25;59.79;97266.81;6255149;28;20050;-67
2022/11/07 04:44:56;;;;;;;4.70;3.03;;;;;;;1.29;59.65;97275.34;6295244;28;20048;-67
2022/11/07 04:47:58;;;;;;;5.05;3.05;;;;;;;1.34;59.30;97276.97;6177624;28;20088;-65
2022/11/07 04:51:02;;;;;;;3.05;2.65;;;;;;;1.37;58.60;97286.41;6190309;28;20149;-66
2022/11/07 04:54:03;;;;;;;2.55;2.17;;;;;;;1.20;58.69;97289.38;6194491;28;20103;-67
2022/11/07 04:57:07;;;;;;;6.82;2.30;;;;;;;1.17;59.13;97286.00;6193378;28;20053;-65
2022/11/07 05:00:13;;;;;;;4.00;2.17;;;;;;;1.29;59.00;97289.16;6182456;28;20054;-66
2022/11/07 05:03:21;;;;;;;3.67;1.95;;;;;;;1.42;58.54;97282.00;6206767;28;20053;-66
2022/11/07 05:06:25;;;;;;;3.72;1.90;;;;;;;1.46;58.19;97281.03;6294765;28;20052;-67
2022/11/07 05:09:29;;;;;;;4.18;2.38;;;;;;;1.64;57.85;97279.75;6297105;28;20044;-67
2022/11/07 05:12:31;;;;;;;3.92;2.42;;;;;;;1.73;57.76;97279.56;6294816;28;20045;-66
2022/11/07 05:15:38;;;;;;;2.85;2.20;;;;;;;1.80;57.27;97286.28;6294760;28;20488;-66
2022/11/07 05:18:45;;;;;;;3.05;2.20;;;;;;;2.02;57.15;97290.97;6293573;28;20051;-66
2022/11/07 05:23:10;;;;;;;3.92;2.20;;;;;;;2.24;56.43;97296.50;6295491;28;20049;-66
2022/11/07 05:25:11;;;;;;;4.78;2.85;;;;;;;2.38;56.37;97285.78;6292109;28;20172;-65
2022/11/07 05:28:25;;;;;;;4.97;2.60;;;;;;;2.45;55.79;97285.56;6293954;28;20044;-66
2022/11/07 05:31:28;;;;;;;3.03;2.28;;;;;;;2.55;55.61;97288.78;6285160;28;20052;-66
2022/11/07 05:34:33;;;;;;;2.38;1.92;;;;;;;2.71;55.07;97281.41;6296940;28;20086;-67
2022/11/07 05:37:34;;;;;;;;;;;;;;;2.86;54.95;97298.31;6294646;28;20415;-65
2022/11/07 05:40:39;;;;;;;3.97;1.42;;;;;;;2.85;54.61;97288.84;6296020;28;19967;-66
2022/11/07 05:43:41;;;;;;;3.13;1.75;;;;;;;2.75;54.81;97280.44;6292678;28;20055;-67
2022/11/07 05:46:45;;;;;;;5.93;3.38;;;;;;;2.65;55.15;97278.97;6294439;28;20044;-66
2022/11/07 05:49:49;;;;;;;5.65;2.42;;;;;;;2.53;54.51;97277.56;6292752;28;20052;-67
2022/11/07 05:52:53;;;;;;;3.25;2.42;;;;;;;2.47;55.26;97283.78;6295058;28;20036;-66
2022/11/07 05:55:57;;;;;;;8.85;4.28;;;;;;;2.58;55.11;97290.44;6294006;28;20056;-67
2022/11/07 05:59:02;;;;;;;8.57;4.72;;;;;;;2.63;55.10;97292.03;6293907;28;20487;-67
2022/11/07 06:02:06;;;;;;;6.13;2.38;;;;;;;2.74;54.69;97285.69;6293407;28;20045;-68
2022/11/07 06:05:08;;;;;;;3.15;1.75;;;;;;;2.79;54.00;97273.41;6207127;28;20054;-67
2022/11/07 06:08:13;;;;;;;2.10;1.50;;;;;;;2.89;54.17;97274.88;6190482;28;20057;-67
2022/11/07 06:11:16;;;;;;;3.50;1.60;;;;;;;3.08;53.72;97270.84;6192657;28;20695;-69
2022/11/07 06:14:26;;;;;;;2.72;1.40;;;;;;;3.52;52.75;97281.69;6189961;28;20042;-67
2022/11/07 06:17:30;;;;;;;2.92;1.50;;;;;;;3.98;51.75;97279.41;6190392;28;20149;-67
2022/11/07 06:20:36;;;;;;;3.20;1.50;;;;;;;4.50;50.25;97273.34;6190941;28;20203;-67
2022/11/07 06:23:42;;;;;;;1.95;1.48;;;;;;;5.21;48.91;97276.03;6191628;28;20513;-66
2022/11/07 06:26:48;;;;;;;1.45;1.33;;;;;;;5.97;46.89;97276.63;6192252;28;20055;-67
2022/11/07 06:29:57;;;;;;;1.52;1.30;;;;;;;7.20;44.73;97278.34;6237520;28;20044;-67
2022/11/07 06:33:07;;;;;;;2.85;1.25;;;;;;;9.43;40.63;97284.03;6246086;28;20413;-67
2022/11/07 06:36:11;;;;;;;2.45;1.50;;;;;;;10.65;38.42;97293.03;6251875;28;20137;-67
2022/11/07 06:39:12;;;;;;;1.52;1.15;;;;;;;10.64;37.40;97292.16;6318605;28;20071;-66
2022/11/07 06:42:16;;;;;;;4.75;2.50;;;;;;;9.99;38.46;97278.34;6322435;28;20048;-67
2022/11/07 06:45:17;;;;;;;8.90;4.05;;;;;;;9.37;39.58;97281.72;6205684;28;20420;-72
2022/11/07 06:48:26;;;;;;;4.05;2.90;;;;;;;8.71;40.62;97286.91;6200929;28;20038;-72
2022/11/07 06:51:30;;;;;;;4.10;2.20;;;;;;;7.97;41.64;97282.66;6196383;28;20054;-72
2022/11/07 06:54:34;;;;;;;2.67;1.30;;;;;;;7.67;42.05;97294.56;6195104;28;20054;-71
2022/11/07 06:57:39;;;;;;;2.17;1.40;;;;;;;8.30;40.89;97293.28;6200213;28;20050;-70
2022/11/07 07:00:43;;;;;;;1.67;1.20;;;;;;;10.60;37.54;97295.94;6248895;28;20074;-69
2022/11/07 07:03:47;;;;;;;1.33;0.93;;;;;;;12.36;34.46;97289.50;6234794;28;20050;-70
2022/11/07 07:06:51;;;;;;;1.10;0.93;;;;;;;13.54;32.09;97291.25;6173204;28;20055;-69
2022/11/07 07:09:52;;;;;;;1.25;0.95;;;;;;;14.72;30.80;97280.94;6172931;28;20063;-70
2022/11/07 07:12:55;;;;;;;2.00;1.00;;;;;;;17.17;27.70;97284.38;6172110;28;20137;-69
2022/11/07 07:15:59;;;;;;;1.98;0.98;;;;;;;18.20;25.97;97275.44;6238398;28;20435;-70
2022/11/07 07:19:05;;;;;;;1.80;0.77;;;;;;;18.27;25.94;97281.91;6191589;28;20143;-69
2022/11/07 07:22:11;;;;;;;;;;;;;;;19.62;25.71;97276.66;6211025;28;20447;-69
2022/11/07 07:25:12;;;;;;;1.67;0.90;;;;;;;18.78;24.70;97274.69;6297698;28;20022;-69
2022/11/07 07:28:13;;;;;;;1.92;0.88;;;;;;;17.86;24.84;97267.81;6255682;28;20055;-69
2022/11/07 07:31:30;;;;;;;;;;;;;;;17.82;25.83;97265.53;6177059;28;20046;-69
2022/11/07 07:34:31;;;;;;;0.60;0.60;;;;;;;17.62;25.10;97269.91;6171341;28;19929;-69
2022/11/07 07:37:36;;;;;;;0.77;0.65;;;;;;;18.23;24.49;97264.53;6170991;28;20050;-70
2022/11/07 07:40:37;;;;;;;0.75;0.40;;;;;;;19.23;23.12;97258.06;6172026;28;20061;-69
2022/11/07 07:43:38;;;;;;;0.50;0.40;;;;;;;19.49;22.51;97272.44;6254435;28;20133;-70
2022/11/07 07:46:44;;;;;;;2.15;0.50;;;;;;;19.21;22.67;97271.53;6168636;28;20047;-68
2022/11/07 07:49:50;;;;;;;4.22;1.75;;;;;;;19.30;22.66;97272.50;6170893;28;20050;-68
2022/11/07 07:52:58;;;;;;;2.38;1.30;;;;;;;19.44;22.58;97268.53;6175881;28;20062;-68
2022/11/07 07:56:04;;;;;;;1.15;0.52;;;;;;;18.51;23.04;97240.69;6171397;28;20047;-68
2022/11/07 07:59:12;;;;;;;1.00;0.60;;;;;;;18.19;23.32;97249.78;6233601;28;20126;-74
2022/11/07 08:02:18;;;;;;;1.63;0.90;;;;;;;19.22;22.55;97251.91;6242603;28;20038;-65
2022/11/07 08:05:30;;;;;;;2.83;1.00;;;;;;;21.01;20.58;97262.16;6252316;28;20081;-66
2022/11/07 08:08:36;;;;;;;1.48;0.77;;;;;;;22.60;19.67;97264.28;6169300;28;20038;-66
2022/11/07 08:11:43;;;;;;;2.30;0.82;;;;;;;23.63;17.89;97263.75;6169384;28;20043;-67
2022/11/07 08:14:45;;;;;;;1.33;0.73;;;;;;;24.57;17.44;97256.69;6174643;28;20059;-66
2022/11/07 08:17:46;;;;;;;1.10;0.50;;;;;;;25.08;17.07;97258.78;6169210;28;20047;-69
2022/11/07 08:20:55;;;;;;;0.93;0.70;;;;;;;25.65;16.82;97252.06;6165280;28;20039;-65
2022/11/07 08:23:56;;;;;;;0.82;0.50;;;;;;;26.38;16.30;97245.78;6168115;28;20055;-67
2022/11/07 08:26:57;;;;;;;1.45;0.60;;;;;;;26.28;16.05;97237.16;6167931;28;20789;-66
2022/11/07 08:30:02;;;;;;;0.63;0.50;;;;;;;25.82;16.47;97247.28;6167214;28;20040;-65
2022/11/07 08:33:08;;;;;;;0.95;0.60;;;;;;;25.67;15.91;97242.75;6168673;28;20040;-65
2022/11/07 08:36:09;;;;;;;2.35;0.60;;;;;;;25.34;16.42;97241.44;6167990;28;20067;-66
2022/11/07 08:39:11;;;;;;;2.53;1.05;;;;;;;25.06;16.39;97240.13;6163283;28;20138;-62
2022/11/07 08:42:15;;;;;;;1.83;0.50;;;;;;;25.45;16.03;97233.75;6160058;28;20047;-69
2022/11/07 08:45:24;;;;;;;0.75;0.47;;;;;;;25.36;16.09;97234.00;6160196;28;20559;-68
2022/11/07 08:48:26;;;;;;;0.38;0.38;;;;;;;24.95;16.57;97232.50;6162060;28;20276;-68
2022/11/07 08:51:30;;;;;;;0.95;0.70;;;;;;;24.92;16.64;97243.63;6162466;28;20035;-67
2022/11/07 08:54:34;;;;;;;0.85;0.60;;;;;;;24.66;16.23;97238.63;6160856;28;20083;-68
2022/11/07 09:04:41;;;;;;;0.68;0.50;;;;;;;24.52;16.60;97232.16;6349516;27;20615;-68
2022/11/07 09:07:43;;;;;;;0.50;0.50;;;;;;;23.81;16.67;97223.25;6361548;28;20075;-74
2022/11/07 09:10:44;;;;;;;0.43;0.40;;;;;;;23.33;16.83;97216.16;6315590;28;20532;-74
2022/11/07 09:13:52;;;;;;;0.63;0.50;;;;;;;23.85;16.79;97221.06;6333385;28;20039;-74
2022/11/07 09:16:56;;;;;;;0.30;0.30;;;;;;;23.52;17.08;97213.94;6377981;28;20039;-73
2022/11/07 09:20:00;;;;;;;1.13;0.50;;;;;;;23.42;17.04;97215.97;6373132;28;20099;-74
2022/11/07 09:23:06;;;;;;;0.70;0.57;;;;;;;23.44;17.03;97211.28;6381447;28;20039;-74
2022/11/07 09:26:10;;;;;;;0.68;0.50;;;;;;;23.23;17.07;97203.75;6352966;28;20050;-73
2022/11/07 09:29:14;;;;;;;0.50;0.50;;;;;;;23.04;17.64;97210.34;6368829;28;20039;-73
2022/11/07 09:32:16;;;;;;;2.33;1.38;;;;;;;21.74;18.08;97214.44;6343485;28;20036;-73
2022/11/07 09:35:22;;;;;;;3.08;1.73;;;;;;;20.86;18.89;97194.97;6348872;28;20400;-73
2022/11/07 09:38:30;;;;;;;1.45;0.98;;;;;;;20.24;19.51;97204.75;6326217;28;20123;-74
2022/11/07 09:41:57;;;;;;;1.13;0.77;;;;;;;19.48;20.16;97192.53;6321159;28;20409;-73
2022/11/07 09:45:03;;;;;;;0.77;0.65;;;;;;;19.89;20.11;97190.38;6368595;28;20101;-74
2022/11/07 09:48:16;;;;;;;0.95;0.68;;;;;;;20.17;19.73;97200.03;6341784;28;20042;-74
2022/11/07 09:51:36;;;;;;;0.60;0.60;;;;;;;20.05;19.86;97193.25;6335050;28;20044;-75
2022/11/07 09:54:49;;;;;;;0.52;0.50;;;;;;;19.86;20.03;97185.34;6325898;28;20120;-74
2022/11/07 09:58:11;;;;;;;0.80;0.60;;;;;;;20.96;19.43;97185.03;6352113;28;20044;-76
2022/11/07 10:01:19;;;;;;;1.20;0.75;;;;;;;21.87;18.47;97186.34;6347321;28;20044;-74
2022/11/07 10:04:24;;;;;;;1.65;0.70;;;;;;;22.43;18.36;97184.81;6333172;28;20067;-76
2022/11/07 10:08:04;;;;;;;0.95;0.70;;;;;;;22.63;18.10;97186.16;6337346;28;20107;-76
2022/11/07 10:11:23;;;;;;;1.35;0.70;;;;;;;23.09;17.82;97186.50;6304735;28;20055;-75
2022/11/07 10:14:56;;;;;;;0.47;0.47;;;;;;;22.94;17.70;97181.97;6342268;28;20059;-77
2022/11/07 10:18:16;;;;;;;0.45;0.45;;;;;;;22.42;18.16;97177.78;6335097;28;20052;-75
2022/11/07 10:21:18;;;;;;;0.80;0.57;;;;;;;21.57;18.66;97182.38;6330126;28;20055;-76
2022/11/07 10:24:34;;;;;;;0.70;0.50;;;;;;;20.68;19.27;97180.81;6327552;28;20505;-76
2022/11/07 10:27:43;;;;;;;0.75;0.60;;;;;;;20.43;19.61;97177.91;6337779;28;20044;-75
2022/11/07 10:30:49;;;;;;;5.82;3.13;;;;;;;19.78;20.17;97178.06;6329372;28;20044;-74
2022/11/07 10:34:00;;;;;;;0.95;0.60;;;;;;;17.09;22.84;97172.50;6333219;28;20040;-75
2022/11/07 10:37:04;;;;;;;1.05;0.50;;;;;;;13.77;26.88;97170.63;6337883;28;20044;-75
2022/11/07 10:40:15;;;;;;;1.73;1.15;;;;;;;11.12;30.68;97176.94;6323536;28;20126;-74
2022/11/07 10:43:35;;;;;;;1.15;1.05;;;;;;;9.42;33.57;97174.63;6315122;28;20525;-74
2022/11/07 10:46:45;;;;;;;1.55;0.82;;;;;;;8.38;35.93;97169.69;6312829;28;20054;-75
2022/11/07 10:49:54;;;;;;;0.60;0.57;;;;;;;7.38;37.34;97165.88;6324602;28;20048;-74
2022/11/07 10:53:00;;;;;;;1.60;1.17;;;;;;;7.55;36.97;97158.03;6320753;28;20044;-68
2022/11/07 10:56:12;;;;;;;1.63;1.10;;;;;;;7.14;37.90;97173.94;6319327;28;20545;-70
2022/11/07 10:59:26;;;;;;;1.05;0.95;;;;;;;6.39;39.47;97164.22;6317537;28;20039;-67
2022/11/07 11:02:40;;;;;;;0.82;0.80;;;;;;;5.87;40.19;97173.41;6306314;28;20123;-71
2022/11/07 11:05:43;;;;;;;;;;;;;;;5.54;40.87;97168.63;6296561;28;20058;-72
2022/11/07 11:08:47;;;;;;;1.43;1.10;;;;;;;4.85;42.40;97163.50;6297652;28;19927;-71
2022/11/07 11:11:54;;;;;;;1.00;0.93;;;;;;;5.09;42.56;97166.91;6299222;28;20048;-72
2022/11/07 11:15:03;;;;;;;1.35;0.80;;;;;;;6.71;40.35;97170.69;6296901;28;20139;-70
2022/11/07 11:18:16;;;;;;;1.92;1.33;;;;;;;8.00;36.93;97164.56;6297526;28;20048;-70
2022/11/07 11:21:21;;;;;;;1.05;0.90;;;;;;;8.83;35.30;97176.09;6296675;28;20477;-71
2022/11/07 11:24:28;;;;;;;3.55;0.90;;;;;;;9.41;34.88;97178.19;6315503;28;20060;-71
2022/11/07 11:27:34;;;;;;;1.23;0.90;;;;;;;9.78;34.13;97180.53;6320268;28;20458;-72
2022/11/07 11:30:41;;;;;;;2.25;0.80;;;;;;;9.77;33.80;97169.19;6294455;28;20048;-70
2022/11/07 11:34:04;;;;;;;1.15;0.70;;;;;;;8.58;35.76;97180.91;6293587;28;20036;-71
2022/11/07 11:37:13;;;;;;;0.60;0.60;;;;;;;6.62;39.30;97183.28;6299648;28;20043;-71
2022/11/07 11:40:22;;;;;;;0.70;0.60;;;;;;;5.07;42.57;97174.81;6293876;28;20127;-70
2022/11/07 11:43:40;;;;;;;0.85;0.75;;;;;;;4.02;44.99;97188.13;6295589;28;20041;-71
2022/11/07 11:46:50;;;;;;;1.40;0.73;;;;;;;3.38;46.66;97192.81;6315324;28;20051;-71
2022/11/07 11:50:17;;;;;;;1.63;0.82;;;;;;;2.89;47.78;97199.50;6306714;28;20044;-70
2022/11/07 11:53:21;;;;;;;1.40;0.98;;;;;;;2.57;49.08;97196.06;6319693;28;20098;-70
2022/11/07 11:56:31;;;;;;;1.30;1.20;;;;;;;2.16;50.05;97192.84;6320714;28;20070;-71
2022/11/07 11:59:51;;;;;;;2.30;0.82;;;;;;;1.87;50.40;97187.53;6319534;28;20058;-70
2022/11/07 12:03:17;;;;;;;1.08;0.90;;;;;;;1.63;51.24;97195.03;6307760;28;20437;-71
2022/11/07 12:06:45;;;;;;;1.90;0.90;;;;;;;1.41;51.95;97193.84;6321218;28;20343;-70
2022/11/07 12:10:31;;;;;;;1.40;0.90;;;;;;;1.21;51.69;97192.56;6271716;28;20532;-71
2022/11/07 12:14:01;;;;;;;1.58;0.98;;;;;;;1.09;52.67;97198.88;6319982;28;20521;-70
2022/11/07 12:17:20;;;;;;;1.73;0.98;;;;;;;1.03;52.67;97200.75;6320730;28;20047;-72
2022/11/07 12:21:11;;;;;;;4.82;1.85;;;;;;;1.02;53.29;97196.44;6295876;28;20032;-72
2022/11/07 12:24:38;;;;;;;2.45;1.52;;;;;;;1.05;52.53;97204.19;6247777;28;20704;-70
2022/11/07 12:28:22;;;;;;;2.42;1.50;;;;;;;1.12;53.05;97193.63;6259234;28;20044;-71
2022/11/07 12:31:29;;;;;;;5.70;2.05;;;;;;;1.21;52.40;97205.53;6292305;28;20121;-70
2022/11/07 12:34:53;;;;;;;4.63;2.40;;;;;;;1.27;52.59;97202.78;6293936;28;20037;-70
2022/11/07 12:38:21;;;;;;;6.47;3.13;;;;;;;1.16;53.04;97199.63;6294972;28;20655;-71
2022/11/07 12:41:25;;;;;;;5.45;3.30;;;;;;;1.12;52.94;97203.16;6291808;28;20053;-71
2022/11/07 12:44:51;;;;;;;6.55;3.70;;;;;;;1.14;52.94;97201.38;6298359;28;20447;-71
2022/11/07 12:48:17;;;;;;;6.03;4.00;;;;;;;1.11;53.47;97207.47;6293813;28;20057;-71
2022/11/07 12:51:43;;;;;;;6.53;3.55;;;;;;;1.12;54.10;97219.53;6297886;28;21007;-70
2022/11/07 12:55:20;;;;;;;7.43;3.83;;;;;;;1.18;53.45;97222.91;6318173;28;20131;-71
2022/11/07 12:58:33;;;;;;;5.90;3.90;;;;;;;1.19;53.81;97209.91;6315612;28;20101;-71
2022/11/07 13:01:48;;;;;;;4.60;3.58;;;;;;;1.28;54.18;97219.22;6301700;28;20522;-69
2022/11/07 13:05:23;;;;;;;5.63;3.35;;;;;;;1.27;54.13;97202.78;6292746;28;20063;-68
2022/11/07 13:08:51;;;;;;;5.00;3.00;;;;;;;1.24;53.78;97212.38;6285787;28;20067;-68
2022/11/07 13:12:14;;;;;;;4.07;2.63;;;;;;;1.14;53.74;97208.31;6295631;28;20059;-68
2022/11/07 13:15:17;;;;;;;57.55;17.25;;;;;;;1.14;54.18;97216.09;6292734;28;20571;-67
2022/11/07 13:18:26;;;;;;;11.10;4.85;;;;;;;1.11;53.86;97222.19;6293215;28;20040;-67
2022/11/07 13:21:39;;;;;;;6.60;4.00;;;;;;;1.06;54.55;97213.66;6304849;28;20505;-66
2022/11/07 13:25:08;;;;;;;5.85;2.97;;;;;;;1.06;54.34;97218.84;6318509;28;20052;-68
2022/11/07 13:28:34;;;;;;;3.38;2.47;;;;;;;0.98;55.17;97216.41;6296951;28;20118;-68
2022/11/07 13:31:44;;;;;;;4.85;2.15;;;;;;;0.81;55.04;97227.13;6316487;28;20052;-69
2022/11/07 13:34:53;;;;;;;4.50;2.28;;;;;;;0.81;54.78;97219.34;6301243;28;20044;-68
2022/11/07 13:38:18;;;;;;;5.28;2.33;;;;;;;0.82;55.34;97218.47;6316050;28;20032;-68
2022/11/07 13:41:21;;;;;;;4.68;2.00;;;;;;;0.84;55.15;97215.84;6329980;28;20075;-67
2022/11/07 13:44:27;;;;;;;2.38;1.90;;;;;;;0.83;54.94;97222.75;6343565;28;20500;-67
2022/11/07 13:47:38;;;;;;;3.72;1.50;;;;;;;0.83;55.21;97217.59;6317533;28;20044;-68
2022/11/07 13:50:43;;;;;;;4.30;1.40;;;;;;;0.77;55.55;97222.91;6310207;28;20044;-70
2022/11/07 13:54:29;;;;;;;3.58;1.65;;;;;;;0.72;55.68;97232.50;6317153;28;20050;-66
2022/11/07 13:57:36;;;;;;;2.28;1.48;;;;;;;0.57;55.79;97235.41;6322238;28;20425;-68
2022/11/07 14:00:38;;;;;;;2.88;1.70;;;;;;;0.43;55.81;97222.72;6323708;28;20517;-68
2022/11/07 14:03:39;;;;;;;3.35;1.70;;;;;;;0.21;56.18;97217.06;6306904;28;20079;-68
2022/11/07 14:06:44;;;;;;;2.40;1.35;;;;;;;0.12;56.56;97232.78;6303596;28;20510;-67
2022/11/07 14:09:46;;;;;;;3.22;1.52;;;;;;;-0.06;57.03;97229.63;6298818;28;20053;-68
2022/11/07 14:12:51;;;;;;;3.80;1.70;;;;;;;-0.21;57.75;97227.28;6301493;28;20052;-68
2022/11/07 14:16:20;;;;;;;2.28;1.60;;;;;;;-0.38;57.94;97234.47;6323666;28;20036;-68
2022/11/07 14:19:25;;;;;;;3.42;1.50;;;;;;;-0.60;58.32;97226.19;6322536;28;20086;-67
2022/11/07 14:22:27;;;;;;;5.90;2.15;;;;;;;-0.74;58.36;97234.13;6322824;28;20405;-67
2022/11/07 14:25:33;;;;;;;5.32;2.75;;;;;;;-0.89;59.24;97224.88;6315009;28;20158;-68
2022/11/07 14:28:37;;;;;;;15.05;6.78;;;;;;;-1.00;59.54;97232.75;6316329;28;20131;-68
2022/11/07 14:31:44;;;;;;;8.23;3.63;;;;;;;-1.27;60.27;97213.34;6315040;28;20485;-68
2022/11/07 14:34:47;;;;;;;6.25;2.90;;;;;;;-1.19;60.08;97231.28;6322579;28;20059;-67
2022/11/07 14:37:49;;;;;;;7.97;3.03;;;;;;;-1.43;60.79;97222.97;6321501;28;20042;-70
2022/11/07 14:40:58;;;;;;;9.07;2.80;;;;;;;-1.36;61.05;97228.91;6314461;28;20135;-75
2022/11/07 14:44:03;;;;;;;7.45;3.33;;;;;;;-1.45;60.86;97234.19;6308511;28;20039;-69
2022/11/07 14:47:09;;;;;;;3.78;2.20;;;;;;;-1.53;60.69;97236.00;6308322;28;20040;-66
2022/11/07 14:50:24;;;;;;;3.28;1.30;;;;;;;-1.69;61.58;97232.75;6310779;28;20454;-66
2022/11/07 14:53:36;;;;;;;2.17;1.35;;;;;;;-1.77;61.15;97231.97;6303457;28;20056;-69
2022/11/07 14:56:42;;;;;;;2.50;1.35;;;;;;;-1.87;61.37;97226.91;6297325;28;20052;-69
2022/11/07 14:59:51;;;;;;;1.83;1.50;;;;;;;-1.93;61.33;97232.13;6297696;28;20387;-69
2022/11/07 15:02:59;;;;;;;2.70;1.10;;;;;;;-2.00;61.68;97225.31;6297079;28;20078;-69
2022/11/07 15:06:03;;;;;;;1.70;1.13;;;;;;;-2.13;62.00;97214.25;6297038;28;20067;-69
2022/11/07 15:09:06;;;;;;;2.53;1.67;;;;;;;-2.15;62.41;97225.44;6297129;28;20186;-68